Time;durP1;ratioP1;P1;durP2;ratioP2;P2;SDS_P1;SDS_P2;PMS_P1;PMS_P2;Temp;Humidity;BMP_temperature;BMP_pressure;BME280_temperature;BME280_humidity;BME280_pressure;Samples;Min_cycle;Max_cycle;Signal;HPM_P1;HPM_P2
2021/09/26 00:01:03;;;;;;;12.13;8.07;;;17.40;80.80;;;;;;5009449;28;20018;-74
2021/09/26 00:03:29;;;;;;;8.98;7.00;;;17.40;80.80;;;;;;5009730;28;20059;-75
2021/09/26 00:05:54;;;;;;;11.00;8.02;;;17.40;81.00;;;;;;5009650;28;20086;-74
2021/09/26 00:08:20;;;;;;;11.77;8.50;;;17.30;80.70;;;;;;5009277;28;20038;-75
2021/09/26 00:10:45;;;;;;;12.75;9.02;;;17.30;80.80;;;;;;5009488;28;20032;-75
2021/09/26 00:13:11;;;;;;;9.98;7.53;;;17.30;80.90;;;;;;5009871;28;20037;-75
2021/09/26 00:15:36;;;;;;;11.90;9.20;;;17.30;80.90;;;;;;5009697;28;20026;-76
2021/09/26 00:18:02;;;;;;;11.07;8.27;;;17.20;81.00;;;;;;5009128;28;20044;-78
2021/09/26 00:20:31;;;;;;;10.35;7.72;;;17.20;81.00;;;;;;5009355;28;20117;-76
2021/09/26 00:22:56;;;;;;;12.65;8.68;;;17.20;81.10;;;;;;5009500;28;20387;-76
2021/09/26 00:25:22;;;;;;;11.45;8.45;;;17.20;81.10;;;;;;5009022;28;20030;-78
2021/09/26 00:27:51;;;;;;;12.65;8.90;;;17.10;81.20;;;;;;5009057;28;20376;-76
2021/09/26 00:30:17;;;;;;;11.00;8.60;;;17.10;81.20;;;;;;5007598;28;20029;-76
2021/09/26 00:32:44;;;;;;;11.57;8.93;;;17.10;81.20;;;;;;5009284;28;20030;-77
2021/09/26 00:35:11;;;;;;;11.98;8.20;;;17.10;81.20;;;;;;5009069;28;20053;-77
2021/09/26 00:37:37;;;;;;;12.65;8.23;;;17.10;81.30;;;;;;5008758;28;20022;-76
2021/09/26 00:40:05;;;;;;;9.18;7.07;;;17.10;81.30;;;;;;5007865;28;20030;-76
2021/09/26 00:42:30;;;;;;;10.82;7.68;;;17.10;81.20;;;;;;5007539;28;20034;-76
2021/09/26 00:44:57;;;;;;;11.85;8.32;;;17.10;81.20;;;;;;5009392;28;20030;-76
2021/09/26 00:47:23;;;;;;;10.98;8.30;;;17.10;81.30;;;;;;5008499;28;20026;-76
2021/09/26 00:49:49;;;;;;;8.82;6.38;;;17.10;81.30;;;;;;5008915;28;20026;-76
2021/09/26 00:52:17;;;;;;;10.05;7.13;;;17.10;81.20;;;;;;5008992;28;20026;-77
2021/09/26 00:54:44;;;;;;;10.23;7.63;;;17.10;81.20;;;;;;5009064;28;20116;-75
2021/09/26 00:57:10;;;;;;;9.25;7.68;;;17.10;81.30;;;;;;5008641;28;20078;-76
2021/09/26 00:59:36;;;;;;;8.50;6.18;;;17.10;81.40;;;;;;5008053;28;20032;-76
2021/09/26 01:02:03;;;;;;;12.23;9.10;;;17.10;81.30;;;;;;4998324;28;20030;-76
2021/09/26 01:04:29;;;;;;;9.50;7.13;;;17.10;81.40;;;;;;5011121;28;20033;-77
2021/09/26 01:07:05;;;;;;;10.43;7.10;;;17.10;81.30;;;;;;5008424;28;20042;-76
2021/09/26 01:09:56;;;;;;;9.85;6.10;;;17.10;81.40;;;;;;5010293;28;20690;-76
2021/09/26 01:12:49;;;;;;;7.90;5.30;;;17.10;81.30;;;;;;5002650;28;20388;-76
2021/09/26 01:15:18;;;;;;;;;;;17.10;81.20;;;;;;5013513;28;20460;-78
2021/09/26 01:17:50;;;;;;;8.65;6.13;;;17.10;81.20;;;;;;5008305;28;19960;-76
2021/09/26 01:20:29;;;;;;;8.60;5.90;;;17.00;81.40;;;;;;5010448;28;20686;-76
2021/09/26 01:23:04;;;;;;;7.28;5.45;;;17.00;81.40;;;;;;5027253;28;20026;-78
2021/09/26 01:25:50;;;;;;;8.82;6.63;;;17.00;81.40;;;;;;5013798;28;20037;-76
2021/09/26 01:28:24;;;;;;;6.50;5.10;;;17.00;81.30;;;;;;4993058;28;20383;-76
2021/09/26 01:30:53;;;;;;;10.23;7.45;;;17.00;81.30;;;;;;5002544;28;20097;-76
2021/09/26 01:33:29;;;;;;;8.55;6.30;;;17.00;81.40;;;;;;5026049;28;20034;-76
2021/09/26 01:36:09;;;;;;;10.68;6.47;;;17.00;81.40;;;;;;5008741;28;20033;-77
2021/09/26 01:38:58;;;;;;;9.10;6.78;;;17.00;81.30;;;;;;5008073;28;20082;-76
2021/09/26 01:41:59;;;;;;;10.50;7.82;;;17.00;81.30;;;;;;5008676;28;20531;-77
2021/09/26 01:44:36;;;;;;;7.25;5.82;;;17.00;81.40;;;;;;5008380;28;20038;-76
2021/09/26 01:47:03;;;;;;;7.45;5.28;;;17.00;81.40;;;;;;5008132;28;20053;-76
2021/09/26 01:49:34;;;;;;;7.07;5.10;;;17.00;81.30;;;;;;5001933;28;20079;-75
2021/09/26 01:52:01;;;;;;;8.95;6.55;;;17.00;81.30;;;;;;5005933;28;20034;-76
2021/09/26 01:54:28;;;;;;;9.23;7.32;;;17.00;81.20;;;;;;5019195;28;20022;-75
2021/09/26 01:56:56;;;;;;;7.57;5.80;;;17.00;81.30;;;;;;5015919;28;20018;-76
2021/09/26 01:59:25;;;;;;;8.23;5.88;;;17.00;81.40;;;;;;5025911;28;20022;-75
2021/09/26 02:01:52;;;;;;;10.13;7.70;;;16.90;81.30;;;;;;5021674;28;20429;-76
2021/09/26 02:04:19;;;;;;;10.55;8.20;;;16.90;81.40;;;;;;5036938;28;20064;-75
2021/09/26 02:06:45;;;;;;;8.02;6.65;;;16.90;81.50;;;;;;5010007;28;20029;-76
2021/09/26 02:09:12;;;;;;;9.75;7.63;;;16.80;81.50;;;;;;5006432;28;20043;-75
2021/09/26 02:11:39;;;;;;;10.50;7.63;;;16.80;81.60;;;;;;5054023;28;20094;-76
2021/09/26 02:14:06;;;;;;;9.10;5.90;;;16.80;81.70;;;;;;4994818;28;20560;-76
2021/09/26 02:16:35;;;;;;;9.82;7.43;;;16.80;81.60;;;;;;5035865;28;20068;-76
2021/09/26 02:19:05;;;;;;;10.60;7.70;;;16.80;81.60;;;;;;5066102;28;20033;-76
2021/09/26 02:21:31;;;;;;;9.95;7.70;;;16.80;81.60;;;;;;5021553;28;20041;-77
2021/09/26 02:23:58;;;;;;;8.07;6.32;;;16.80;81.70;;;;;;5011557;28;20345;-76
2021/09/26 02:26:25;;;;;;;8.48;5.53;;;16.80;81.70;;;;;;5010121;28;20030;-76
2021/09/26 02:28:51;;;;;;;10.02;7.35;;;16.80;81.60;;;;;;5021192;28;20021;-75
2021/09/26 02:31:17;;;;;;;9.77;6.72;;;16.70;81.60;;;;;;5030473;28;20117;-76
2021/09/26 02:33:44;;;;;;;10.75;6.72;;;16.80;81.70;;;;;;5010613;28;20022;-77
2021/09/26 02:36:11;;;;;;;11.18;6.30;;;16.70;81.80;;;;;;5019218;28;20053;-77
2021/09/26 02:38:37;;;;;;;7.95;5.88;;;16.70;81.80;;;;;;5030886;28;20014;-77
2021/09/26 02:41:34;;;;;;;7.70;5.38;;;16.70;81.80;;;;;;5025357;28;20040;-76
2021/09/26 02:44:20;;;;;;;7.68;5.68;;;16.70;81.70;;;;;;5011482;28;20030;-76
2021/09/26 02:46:54;;;;;;;9.85;6.70;;;16.80;81.60;;;;;;5011047;28;20116;-75
2021/09/26 02:49:20;;;;;;;8.98;6.60;;;16.70;81.50;;;;;;5006002;28;20037;-76
2021/09/26 02:51:46;;;;;;;7.85;5.80;;;16.70;81.60;;;;;;4999826;28;20105;-75
2021/09/26 02:54:14;;;;;;;7.85;5.82;;;16.70;81.60;;;;;;5034650;28;20034;-75
2021/09/26 02:56:40;;;;;;;8.25;6.18;;;16.70;81.60;;;;;;5019483;28;20051;-76
2021/09/26 02:59:06;;;;;;;8.48;5.95;;;16.70;81.50;;;;;;5026321;28;20357;-75
2021/09/26 03:01:32;;;;;;;8.65;6.45;;;16.70;81.50;;;;;;5008266;28;20034;-75
2021/09/26 03:04:03;;;;;;;7.57;5.20;;;16.70;81.40;;;;;;5010718;28;20097;-77
2021/09/26 03:06:28;;;;;;;6.45;4.78;;;16.70;81.50;;;;;;5010929;28;20046;-76
2021/09/26 03:08:54;;;;;;;8.15;5.60;;;16.70;81.40;;;;;;5010673;28;20166;-75
2021/09/26 03:11:19;;;;;;;7.07;4.82;;;16.70;82.00;;;;;;5011140;28;20089;-76
2021/09/26 03:13:45;;;;;;;6.55;4.68;;;16.70;81.30;;;;;;4996310;28;20014;-77
2021/09/26 03:16:10;;;;;;;6.45;4.53;;;16.70;81.30;;;;;;4991301;28;20430;-77
2021/09/26 03:18:39;;;;;;;6.40;5.28;;;16.70;81.20;;;;;;4990766;28;20653;-76
2021/09/26 03:21:05;;;;;;;7.32;5.38;;;16.70;81.20;;;;;;5023719;28;20476;-77
2021/09/26 03:23:30;;;;;;;5.90;4.25;;;16.80;81.20;;;;;;5010891;28;20088;-76
2021/09/26 03:25:59;;;;;;;6.85;4.88;;;16.80;81.20;;;;;;5012907;28;20029;-76
2021/09/26 03:28:24;;;;;;;9.05;6.15;;;16.70;81.20;;;;;;5029952;28;20061;-76
2021/09/26 03:30:50;;;;;;;11.80;7.97;;;16.60;81.40;;;;;;5016433;28;20077;-77
2021/09/26 03:33:18;;;;;;;7.82;5.72;;;16.60;81.40;;;;;;5022640;28;20089;-75
2021/09/26 03:35:43;;;;;;;6.38;5.15;;;16.60;81.50;;;;;;5030228;28;20028;-77
2021/09/26 03:38:12;;;;;;;5.07;4.15;;;16.60;81.50;;;;;;5029893;28;20026;-75
2021/09/26 03:40:38;;;;;;;5.25;4.05;;;16.60;81.40;;;;;;5014722;28;20030;-76
2021/09/26 03:43:03;;;;;;;7.93;5.68;;;16.60;81.30;;;;;;5010247;28;20033;-75
2021/09/26 03:45:29;;;;;;;8.30;6.50;;;16.70;81.40;;;;;;5009385;28;20131;-76
2021/09/26 03:47:55;;;;;;;9.55;6.55;;;16.70;81.30;;;;;;5009201;28;20387;-77
2021/09/26 03:50:20;;;;;;;6.82;5.55;;;16.60;81.30;;;;;;5011237;28;20395;-77
2021/09/26 03:52:46;;;;;;;7.60;6.05;;;16.60;81.30;;;;;;5021239;28;20037;-76
2021/09/26 03:55:12;;;;;;;7.45;5.85;;;16.70;81.30;;;;;;5029702;28;20028;-78
2021/09/26 03:57:38;;;;;;;5.43;4.20;;;16.70;81.20;;;;;;5029150;28;20566;-76
2021/09/26 04:00:06;;;;;;;7.28;4.90;;;16.70;81.20;;;;;;5017558;27;20026;-75
2021/09/26 04:02:31;;;;;;;7.38;5.72;;;16.70;81.20;;;;;;5009945;28;20026;-76
2021/09/26 04:04:57;;;;;;;8.63;6.25;;;16.70;81.20;;;;;;5010059;28;20104;-77
2021/09/26 04:07:22;;;;;;;10.52;7.35;;;16.70;81.30;;;;;;5008504;28;20065;-76
2021/09/26 04:09:48;;;;;;;9.73;7.72;;;16.60;81.30;;;;;;5018865;28;20014;-77
2021/09/26 04:12:13;;;;;;;8.73;6.95;;;16.60;81.30;;;;;;5010035;28;20460;-77
2021/09/26 04:14:40;;;;;;;9.43;6.55;;;16.60;81.30;;;;;;5009507;28;20066;-75
2021/09/26 04:17:06;;;;;;;8.25;5.70;;;16.60;81.30;;;;;;5005608;28;20022;-76
2021/09/26 04:19:31;;;;;;;10.90;7.30;;;16.60;81.30;;;;;;5005748;28;20038;-76
2021/09/26 04:21:57;;;;;;;8.48;6.97;;;16.60;81.40;;;;;;5008259;28;20018;-75
2021/09/26 04:24:22;;;;;;;7.93;6.32;;;16.50;81.50;;;;;;4992650;28;20027;-76
2021/09/26 04:26:48;;;;;;;8.90;7.03;;;16.50;81.60;;;;;;4989676;28;20439;-76
2021/09/26 04:29:13;;;;;;;7.93;6.00;;;16.50;81.70;;;;;;5011316;28;20445;-75
2021/09/26 04:31:39;;;;;;;7.03;5.63;;;16.50;81.80;;;;;;5009561;28;20062;-75
2021/09/26 04:34:05;;;;;;;6.25;4.75;;;16.50;81.80;;;;;;5008858;28;20067;-75
2021/09/26 04:36:30;;;;;;;9.35;6.95;;;16.50;81.70;;;;;;4998484;28;20068;-76
2021/09/26 04:38:59;;;;;;;8.27;6.90;;;16.50;81.70;;;;;;5011450;28;20022;-75
2021/09/26 04:41:24;;;;;;;8.10;5.60;;;16.50;81.70;;;;;;4989798;28;20057;-76
2021/09/26 04:43:50;;;;;;;10.65;6.00;;;16.50;81.70;;;;;;4989545;28;20030;-77
2021/09/26 04:46:15;;;;;;;8.25;5.65;;;16.50;81.60;;;;;;5005808;28;20034;-76
2021/09/26 04:48:44;;;;;;;7.63;5.82;;;16.50;81.50;;;;;;4989367;28;20042;-75
2021/09/26 04:51:09;;;;;;;9.65;5.93;;;16.50;81.50;;;;;;5007147;28;20030;-75
2021/09/26 04:53:35;;;;;;;6.53;5.28;;;16.50;81.50;;;;;;5009155;28;20154;-76
2021/09/26 04:56:01;;;;;;;6.70;5.07;;;16.60;81.40;;;;;;5009010;28;20112;-75
2021/09/26 04:58:28;;;;;;;7.95;5.75;;;16.60;81.40;;;;;;5006781;28;20026;-75
2021/09/26 05:00:57;;;;;;;6.80;4.90;;;16.70;81.30;;;;;;5004098;28;20093;-74
2021/09/26 05:03:23;;;;;;;9.15;6.57;;;16.70;81.30;;;;;;5012929;28;20021;-75
2021/09/26 05:05:48;;;;;;;8.50;6.50;;;16.60;81.20;;;;;;5037840;28;20058;-76
2021/09/26 05:08:14;;;;;;;7.63;6.07;;;16.60;81.20;;;;;;5012924;28;20021;-76
2021/09/26 05:10:39;;;;;;;6.32;5.40;;;16.60;81.20;;;;;;5049052;28;20023;-76
2021/09/26 05:13:05;;;;;;;11.05;7.43;;;16.60;81.20;;;;;;5111561;28;20028;-78
2021/09/26 05:15:31;;;;;;;8.98;7.28;;;16.60;81.30;;;;;;5049557;28;20022;-76
2021/09/26 05:17:56;;;;;;;8.05;6.32;;;16.60;81.30;;;;;;5018015;28;20030;-75
2021/09/26 05:20:22;;;;;;;7.50;5.32;;;16.50;81.30;;;;;;4998076;28;20101;-75
2021/09/26 05:22:48;;;;;;;8.18;6.80;;;16.60;81.30;;;;;;5054287;28;20071;-75
2021/09/26 05:25:15;;;;;;;7.55;6.07;;;16.60;81.40;;;;;;5062047;28;20045;-76
2021/09/26 05:27:41;;;;;;;9.32;6.18;;;16.60;81.40;;;;;;5011323;28;20073;-76
2021/09/26 05:30:07;;;;;;;6.95;5.43;;;16.60;81.50;;;;;;5030793;28;20049;-74
2021/09/26 05:32:33;;;;;;;6.38;5.25;;;16.60;81.40;;;;;;5097911;28;20065;-76
2021/09/26 05:34:59;;;;;;;6.57;5.13;;;16.70;81.30;;;;;;5012068;28;20029;-75
2021/09/26 05:37:24;;;;;;;5.90;4.40;;;16.70;81.20;;;;;;5063626;28;20026;-75
2021/09/26 05:39:50;;;;;;;5.55;4.10;;;16.80;81.10;;;;;;5070059;28;20523;-75
2021/09/26 05:42:16;;;;;;;7.18;5.20;;;16.80;81.00;;;;;;5012864;28;20133;-75
2021/09/26 05:44:41;;;;;;;8.15;5.63;;;16.80;80.90;;;;;;5053442;28;20047;-75
2021/09/26 05:47:07;;;;;;;7.30;5.75;;;16.80;80.90;;;;;;5074104;28;20040;-75
2021/09/26 05:49:36;;;;;;;8.10;5.82;;;16.90;80.90;;;;;;5039109;28;20008;-75
2021/09/26 05:52:07;;;;;;;8.07;5.22;;;16.80;80.90;;;;;;5021948;28;20083;-76
2021/09/26 05:54:37;;;;;;;8.05;6.35;;;16.90;80.90;;;;;;4991987;28;20058;-76
2021/09/26 05:57:03;;;;;;;6.60;5.00;;;16.90;80.80;;;;;;5022977;28;20022;-75
2021/09/26 05:59:30;;;;;;;7.18;4.97;;;16.80;80.80;;;;;;5011964;28;20037;-75
2021/09/26 06:01:56;;;;;;;6.85;4.25;;;16.80;80.80;;;;;;5040307;28;20034;-77
2021/09/26 06:04:21;;;;;;;6.35;4.05;;;16.80;80.80;;;;;;5040778;28;20215;-75
2021/09/26 06:06:47;;;;;;;5.38;4.22;;;16.80;80.80;;;;;;5088837;28;20489;-75
2021/09/26 06:09:12;;;;;;;6.45;5.35;;;16.90;80.90;;;;;;5015956;28;20030;-75
2021/09/26 06:11:38;;;;;;;6.85;5.65;;;16.90;80.90;;;;;;5028838;28;20033;-76
2021/09/26 06:14:03;;;;;;;9.45;6.43;;;16.80;81.00;;;;;;5100390;28;20015;-76
2021/09/26 06:16:29;;;;;;;7.72;5.90;;;16.80;81.20;;;;;;5042874;28;20073;-76
2021/09/26 06:18:54;;;;;;;7.60;6.18;;;16.80;81.40;;;;;;5009348;28;20034;-76
2021/09/26 06:21:20;;;;;;;7.85;5.60;;;16.70;81.60;;;;;;5011369;28;20018;-76
2021/09/26 06:23:45;;;;;;;6.75;4.55;;;16.80;81.80;;;;;;5011237;28;20102;-75
2021/09/26 06:26:11;;;;;;;7.97;6.38;;;16.80;81.80;;;;;;5011321;28;20129;-75
2021/09/26 06:28:36;;;;;;;6.90;5.30;;;16.80;81.90;;;;;;5006947;28;20022;-76
2021/09/26 06:31:02;;;;;;;6.53;5.10;;;16.80;81.90;;;;;;5011556;28;20022;-75
2021/09/26 06:33:27;;;;;;;7.60;5.10;;;16.80;81.80;;;;;;5011273;28;20030;-76
2021/09/26 06:35:53;;;;;;;6.43;5.15;;;16.90;81.80;;;;;;5011365;28;20628;-77
2021/09/26 06:38:19;;;;;;;6.85;5.53;;;16.90;81.70;;;;;;4999727;28;20037;-78
2021/09/26 06:40:45;;;;;;;8.75;6.18;;;17.00;81.70;;;;;;5022197;28;20025;-79
2021/09/26 06:43:12;;;;;;;8.73;5.50;;;16.90;81.80;;;;;;5025190;28;20068;-79
2021/09/26 06:45:38;;;;;;;5.10;3.92;;;17.00;81.80;;;;;;5011144;28;20064;-78
2021/09/26 06:48:04;;;;;;;6.75;5.10;;;17.00;81.70;;;;;;5010610;28;20089;-78
2021/09/26 06:50:30;;;;;;;8.50;6.32;;;17.00;81.80;;;;;;5002258;28;20669;-77
2021/09/26 06:52:55;;;;;;;6.93;5.45;;;17.00;81.80;;;;;;5028166;28;20108;-76
2021/09/26 06:55:21;;;;;;;8.60;6.30;;;17.10;81.70;;;;;;5006616;28;20026;-76
2021/09/26 06:57:46;;;;;;;7.88;5.78;;;17.20;81.60;;;;;;5000332;28;20401;-77
2021/09/26 07:00:12;;;;;;;6.47;4.95;;;17.20;81.50;;;;;;5000209;28;20101;-75
2021/09/26 07:02:38;;;;;;;7.28;4.88;;;17.30;81.40;;;;;;5002529;28;20038;-74
2021/09/26 07:05:04;;;;;;;7.43;5.80;;;17.30;81.30;;;;;;5017211;28;20022;-76
2021/09/26 07:07:30;;;;;;;7.20;4.07;;;17.40;81.30;;;;;;5003162;28;20034;-75
2021/09/26 07:09:55;;;;;;;5.78;4.47;;;17.40;81.20;;;;;;5003955;28;20492;-76
2021/09/26 07:12:21;;;;;;;5.70;4.90;;;17.50;81.20;;;;;;5009236;28;20454;-76
2021/09/26 07:14:47;;;;;;;4.28;3.25;;;17.50;81.10;;;;;;5004331;28;20026;-78
2021/09/26 07:17:13;;;;;;;5.95;4.80;;;17.60;81.10;;;;;;5009422;28;20428;-76
2021/09/26 07:19:39;;;;;;;5.70;4.70;;;17.70;81.00;;;;;;5009613;28;20048;-76
2021/09/26 07:22:05;;;;;;;4.53;3.40;;;17.70;80.90;;;;;;5004411;28;20471;-77
2021/09/26 07:24:31;;;;;;;5.82;4.75;;;17.80;80.70;;;;;;5005343;28;20026;-78
2021/09/26 07:26:57;;;;;;;8.05;6.50;;;18.00;80.60;;;;;;5007421;28;20132;-76
2021/09/26 07:29:22;;;;;;;6.72;5.38;;;18.00;80.30;;;;;;5008516;28;20110;-77
2021/09/26 07:31:48;;;;;;;8.18;6.47;;;18.00;80.30;;;;;;5005481;28;20026;-78
2021/09/26 07:34:14;;;;;;;9.27;6.15;;;18.00;80.40;;;;;;5004709;28;20139;-79
2021/09/26 07:36:40;;;;;;;10.30;6.47;;;18.00;80.60;;;;;;5005087;28;20022;-78
2021/09/26 07:39:06;;;;;;;7.55;5.70;;;18.00;80.60;;;;;;5002276;28;20054;-78
2021/09/26 07:41:32;;;;;;;7.13;5.65;;;18.00;80.60;;;;;;5003339;28;20069;-78
2021/09/26 07:43:58;;;;;;;6.50;5.18;;;18.00;80.60;;;;;;5019082;28;20040;-79
2021/09/26 07:46:24;;;;;;;8.80;7.05;;;18.00;80.60;;;;;;5015765;28;20069;-77
2021/09/26 07:48:50;;;;;;;8.57;7.22;;;18.00;80.80;;;;;;5001792;28;20032;-79
2021/09/26 07:51:16;;;;;;;7.53;6.03;;;17.90;80.90;;;;;;5009780;28;20026;-80
2021/09/26 07:53:41;;;;;;;6.38;5.38;;;17.90;81.00;;;;;;5007555;28;20032;-77
2021/09/26 07:56:07;;;;;;;7.18;5.07;;;17.90;81.20;;;;;;5020031;28;20064;-76
2021/09/26 07:58:33;;;;;;;6.55;5.13;;;18.00;81.20;;;;;;5006720;28;20067;-79
2021/09/26 08:01:01;;;;;;;6.65;5.57;;;18.10;81.10;;;;;;5010311;28;20030;-78
2021/09/26 08:03:28;;;;;;;7.13;5.43;;;18.10;81.10;;;;;;5011530;28;20378;-79
2021/09/26 08:05:55;;;;;;;6.45;5.43;;;18.10;81.00;;;;;;5017619;28;20041;-79
2021/09/26 08:08:21;;;;;;;6.82;5.57;;;18.20;80.80;;;;;;5015240;28;20053;-78
2021/09/26 08:10:46;;;;;;;5.93;4.50;;;18.40;80.60;;;;;;5019739;28;20046;-76
2021/09/26 08:13:12;;;;;;;7.50;5.70;;;18.50;80.40;;;;;;5016665;28;20130;-78
2021/09/26 08:15:38;;;;;;;8.98;6.47;;;18.50;80.30;;;;;;5014166;28;20045;-77
2021/09/26 08:18:04;;;;;;;6.93;5.78;;;18.60;80.20;;;;;;5016469;28;20044;-77
2021/09/26 08:20:30;;;;;;;8.32;6.60;;;18.70;80.20;;;;;;5020779;28;20025;-75
2021/09/26 08:22:56;;;;;;;7.72;6.43;;;18.80;80.00;;;;;;5018035;28;20075;-75
2021/09/26 08:25:22;;;;;;;7.38;6.28;;;19.00;79.80;;;;;;5007954;28;20028;-77
2021/09/26 08:27:50;;;;;;;8.90;7.07;;;19.10;79.70;;;;;;5006153;28;20536;-77
2021/09/26 08:30:18;;;;;;;8.73;7.63;;;19.20;79.50;;;;;;5004075;28;20029;-78
2021/09/26 08:32:44;;;;;;;10.35;9.25;;;19.20;79.60;;;;;;5039428;28;20447;-78
2021/09/26 08:35:09;;;;;;;8.30;6.85;;;19.20;79.60;;;;;;5024662;28;20030;-85
2021/09/26 08:37:35;;;;;;;7.25;6.45;;;19.20;79.70;;;;;;5027105;28;20110;-77
2021/09/26 08:40:02;;;;;;;6.53;5.70;;;19.20;79.70;;;;;;5002773;28;20035;-76
2021/09/26 08:42:28;;;;;;;7.57;5.80;;;19.40;79.70;;;;;;5012638;28;20057;-79
2021/09/26 08:44:57;;;;;;;6.53;5.35;;;19.40;79.50;;;;;;5002431;28;20053;-77
2021/09/26 08:47:22;;;;;;;7.75;6.20;;;19.50;79.40;;;;;;4997167;28;20490;-78
2021/09/26 08:49:49;;;;;;;5.75;4.75;;;19.60;79.50;;;;;;5005094;28;20022;-77
2021/09/26 08:52:14;;;;;;;7.47;5.63;;;19.70;79.40;;;;;;4998412;28;20499;-78
2021/09/26 08:54:40;;;;;;;10.27;8.00;;;19.80;79.30;;;;;;5003235;28;20069;-78
2021/09/26 08:57:06;;;;;;;11.73;9.50;;;19.80;79.20;;;;;;5003272;28;20328;-77
2021/09/26 08:59:31;;;;;;;9.32;7.05;;;19.80;79.40;;;;;;5003299;28;20086;-76
2021/09/26 09:01:57;;;;;;;5.82;4.57;;;19.80;80.10;;;;;;4996000;28;20026;-83
2021/09/26 09:04:37;;;;;;;7.03;5.85;;;19.90;79.40;;;;;;5022302;28;20087;-76
2021/09/26 09:07:05;;;;;;;7.70;6.47;;;20.00;79.50;;;;;;5015785;28;20034;-76
2021/09/26 09:09:30;;;;;;;6.55;4.82;;;20.00;79.60;;;;;;5009190;28;20087;-78
2021/09/26 09:12:04;;;;;;;6.28;5.50;;;20.10;79.40;;;;;;5004196;28;20080;-78
2021/09/26 09:14:53;;;;;;;7.38;6.32;;;20.20;79.30;;;;;;4998496;28;20026;-79
2021/09/26 09:17:35;;;;;;;6.15;5.13;;;20.40;79.30;;;;;;5001309;28;20026;-76
2021/09/26 09:20:29;;;;;;;8.13;6.97;;;20.40;79.10;;;;;;5001679;28;20485;-77
2021/09/26 09:23:07;;;;;;;7.28;6.05;;;20.40;79.10;;;;;;5011582;28;20384;-77
2021/09/26 09:25:50;;;;;;;12.45;10.25;;;20.50;79.10;;;;;;5008554;28;20037;-76
2021/09/26 09:28:28;;;;;;;8.65;7.38;;;20.50;79.10;;;;;;5008017;28;20026;-76
2021/09/26 09:31:00;;;;;;;8.40;7.00;;;20.50;79.30;;;;;;5008682;28;20520;-75
2021/09/26 09:33:40;;;;;;;7.15;6.03;;;20.60;79.30;;;;;;5008370;28;20026;-77
2021/09/26 09:36:27;;;;;;;7.20;5.10;;;20.70;79.20;;;;;;5008932;28;20018;-77
2021/09/26 09:39:00;;;;;;;9.80;8.05;;;20.90;79.10;;;;;;5004290;28;20090;-76
2021/09/26 09:41:41;;;;;;;5.65;5.05;;;20.90;79.10;;;;;;5008721;28;20482;-78
2021/09/26 09:44:09;;;;;;;11.13;8.05;;;21.00;78.90;;;;;;5008145;28;20041;-77
2021/09/26 09:46:45;;;;;;;9.55;7.78;;;21.00;78.70;;;;;;5008006;28;20041;-78
2021/09/26 09:49:15;;;;;;;9.55;7.97;;;21.10;78.60;;;;;;5003559;28;20059;-76
2021/09/26 09:51:58;;;;;;;6.32;5.60;;;21.10;78.60;;;;;;5057084;28;20031;-77
2021/09/26 09:54:32;;;;;;;7.47;5.65;;;21.20;78.60;;;;;;5017961;28;20026;-77
2021/09/26 09:57:16;;;;;;;11.85;10.10;;;21.30;78.50;;;;;;5007540;28;20437;-79
2021/09/26 09:59:44;;;;;;;12.00;10.45;;;21.40;78.30;;;;;;5008594;28;20044;-77
2021/09/26 10:02:14;;;;;;;11.55;9.35;;;21.40;78.30;;;;;;5008022;28;20022;-76
2021/09/26 10:04:42;;;;;;;12.30;10.30;;;21.40;78.20;;;;;;5007761;28;20491;-79
2021/09/26 10:07:30;;;;;;;11.18;9.77;;;21.40;78.00;;;;;;5005524;28;20117;-78
2021/09/26 10:09:56;;;;;;;7.05;5.72;;;21.40;77.90;;;;;;5007446;28;20544;-79
2021/09/26 10:12:31;;;;;;;10.18;9.07;;;21.50;77.90;;;;;;5001856;28;20037;-77
2021/09/26 10:15:00;;;;;;;10.20;8.70;;;21.50;77.70;;;;;;5001680;28;20030;-76
2021/09/26 10:17:26;;;;;;;8.80;7.90;;;21.60;77.70;;;;;;5001432;28;20038;-76
2021/09/26 10:19:52;;;;;;;9.60;7.85;;;21.70;77.60;;;;;;4998478;28;20043;-77
2021/09/26 10:22:18;;;;;;;9.50;8.25;;;21.80;77.50;;;;;;4991536;28;20030;-77
2021/09/26 10:24:53;;;;;;;6.85;6.15;;;21.80;77.30;;;;;;4991735;28;20026;-76
2021/09/26 10:27:22;;;;;;;5.78;4.35;;;21.80;77.20;;;;;;5005355;28;20041;-77
2021/09/26 10:30:09;;;;;;;6.78;5.93;;;21.90;77.10;;;;;;4999136;28;20401;-77
2021/09/26 10:32:36;;;;;;;10.80;9.70;;;22.00;77.10;;;;;;5002593;28;20025;-76
2021/09/26 10:35:03;;;;;;;10.23;7.50;;;21.90;76.90;;;;;;4990700;28;20060;-76
2021/09/26 10:37:29;;;;;;;10.98;9.77;;;21.90;77.00;;;;;;4998272;28;20553;-75
2021/09/26 10:39:55;;;;;;;9.75;8.50;;;21.90;77.00;;;;;;4998772;28;20062;-75
2021/09/26 10:42:22;;;;;;;11.43;10.23;;;21.80;76.90;;;;;;5000403;28;20100;-75
2021/09/26 10:44:49;;;;;;;8.18;6.95;;;21.80;77.00;;;;;;5000396;28;20022;-75
2021/09/26 10:47:18;;;;;;;11.15;9.88;;;21.80;77.20;;;;;;5000156;28;20063;-75
2021/09/26 10:49:47;;;;;;;8.00;7.15;;;21.80;77.00;;;;;;5005392;28;20018;-75
2021/09/26 10:52:22;;;;;;;11.77;10.57;;;21.90;77.00;;;;;;5001010;28;20029;-76
2021/09/26 10:54:52;;;;;;;9.27;7.38;;;22.00;77.00;;;;;;5002262;28;20022;-75
2021/09/26 10:57:20;;;;;;;4.82;4.13;;;22.10;76.90;;;;;;5003193;28;20408;-78
2021/09/26 10:59:52;;;;;;;10.90;8.77;;;22.30;76.70;;;;;;5004076;28;20033;-77
2021/09/26 11:02:24;;;;;;;11.85;10.65;;;22.30;76.40;;;;;;5026668;28;20105;-77
2021/09/26 11:04:50;;;;;;;9.95;8.40;;;22.40;75.80;;;;;;5006899;28;20508;-77
2021/09/26 11:07:17;;;;;;;9.20;8.02;;;22.40;75.70;;;;;;5007334;28;20509;-77
2021/09/26 11:09:51;;;;;;;10.45;9.43;;;22.40;75.60;;;;;;5012810;28;20071;-77
2021/09/26 11:12:35;;;;;;;11.25;10.00;;;22.50;75.40;;;;;;5024371;28;20160;-78
2021/09/26 11:15:11;;;;;;;10.70;9.60;;;22.60;75.20;;;;;;5006240;28;20047;-76
2021/09/26 11:17:40;;;;;;;10.13;9.13;;;22.70;75.00;;;;;;5021447;28;20048;-76
2021/09/26 11:20:06;;;;;;;12.45;10.82;;;22.80;74.90;;;;;;5003625;28;20034;-77
2021/09/26 11:22:32;;;;;;;11.02;9.55;;;22.80;74.10;;;;;;4999523;28;20585;-77
2021/09/26 11:24:59;;;;;;;8.55;7.50;;;22.90;74.30;;;;;;5022620;28;20021;-79
2021/09/26 11:27:38;;;;;;;12.05;10.73;;;23.00;74.30;;;;;;5003855;28;20492;-78
2021/09/26 11:30:10;;;;;;;8.93;7.88;;;23.10;73.80;;;;;;5070168;28;20024;-78
2021/09/26 11:32:36;;;;;;;13.18;11.80;;;23.20;73.70;;;;;;5113741;28;20101;-78
2021/09/26 11:35:25;;;;;;;11.20;9.52;;;23.30;72.70;;;;;;5042343;28;20117;-78
2021/09/26 11:37:53;;;;;;;11.05;9.95;;;23.30;72.50;;;;;;5014232;28;20103;-78
2021/09/26 11:40:23;;;;;;;8.45;7.65;;;23.40;72.10;;;;;;5001981;28;20025;-77
2021/09/26 11:42:55;;;;;;;8.30;6.80;;;23.50;72.00;;;;;;5004767;28;20388;-78
2021/09/26 11:45:32;;;;;;;8.80;7.90;;;23.50;72.00;;;;;;5003874;28;20015;-75
2021/09/26 11:48:01;;;;;;;7.05;5.93;;;23.40;72.00;;;;;;4999831;28;20037;-75
2021/09/26 11:50:30;;;;;;;10.07;8.43;;;23.60;72.00;;;;;;5000230;28;20033;-75
2021/09/26 11:52:56;;;;;;;9.45;8.45;;;23.70;71.60;;;;;;5000120;28;20391;-75
2021/09/26 11:55:21;;;;;;;6.90;6.20;;;23.70;71.20;;;;;;5000442;28;20023;-75
2021/09/26 11:57:55;;;;;;;7.20;6.50;;;23.80;71.50;;;;;;4996870;28;20018;-75
2021/09/26 12:00:30;;;;;;;7.47;6.45;;;23.80;71.20;;;;;;5000113;28;20029;-75
2021/09/26 12:02:55;;;;;;;6.93;6.10;;;23.80;71.30;;;;;;5001955;28;20045;-75
2021/09/26 12:05:35;;;;;;;7.68;6.65;;;23.80;71.40;;;;;;5002198;28;20014;-75
2021/09/26 12:08:02;;;;;;;5.90;5.18;;;23.80;71.50;;;;;;5000192;28;20029;-75
2021/09/26 12:10:28;;;;;;;7.80;6.32;;;23.90;71.50;;;;;;5005571;28;20014;-75
2021/09/26 12:12:54;;;;;;;7.35;6.65;;;24.00;71.30;;;;;;5002961;28;20689;-74
2021/09/26 12:15:20;;;;;;;9.93;7.72;;;24.00;70.80;;;;;;5004581;28;20025;-75
2021/09/26 12:17:53;;;;;;;6.55;5.57;;;24.00;70.20;;;;;;5004031;28;20084;-75
2021/09/26 12:20:21;;;;;;;6.63;5.70;;;24.00;70.30;;;;;;5006792;28;20048;-75
2021/09/26 12:22:47;;;;;;;6.47;5.65;;;24.20;70.10;;;;;;5003512;28;20022;-75
2021/09/26 12:25:32;;;;;;;6.45;5.68;;;24.20;69.80;;;;;;5004197;28;20045;-75
2021/09/26 12:28:03;;;;;;;11.38;10.13;;;24.30;69.80;;;;;;5040759;28;20031;-76
2021/09/26 12:30:46;;;;;;;8.60;7.60;;;24.30;68.10;;;;;;5087519;28;20061;-75
2021/09/26 12:33:30;;;;;;;9.20;8.20;;;24.40;68.10;;;;;;5008304;28;20018;-77
2021/09/26 12:36:04;;;;;;;6.55;5.78;;;24.30;67.70;;;;;;5009395;28;20033;-77
2021/09/26 12:38:40;;;;;;;6.97;5.78;;;24.40;68.10;;;;;;5008961;28;20029;-77
2021/09/26 12:41:13;;;;;;;6.68;5.97;;;24.50;68.00;;;;;;5009317;28;20074;-77
2021/09/26 12:44:06;;;;;;;7.43;6.70;;;24.70;67.80;;;;;;5009368;28;20409;-75
2021/09/26 12:46:36;;;;;;;5.47;4.75;;;24.90;67.20;;;;;;5009096;28;20492;-75
2021/09/26 12:49:19;;;;;;;5.95;5.30;;;24.90;67.00;;;;;;5008562;28;20372;-75
2021/09/26 12:51:57;;;;;;;6.85;5.75;;;24.90;67.00;;;;;;5009134;28;20116;-75
2021/09/26 12:54:31;;;;;;;7.25;6.45;;;24.90;66.90;;;;;;5009498;28;20029;-75